Time;durP1;ratioP1;P1;durP2;ratioP2;P2;SDS_P1;SDS_P2;PMS_P1;PMS_P2;Temp;Humidity;BMP_temperature;BMP_pressure;BME280_temperature;BME280_humidity;BME280_pressure;Samples;Min_cycle;Max_cycle;Signal;HPM_P1;HPM_P2
2024/01/26 00:01:49;;;;;;;17.35;6.25;;;;;;;7.36;80.76;97770.09;5061078;28;20123;-78
2024/01/26 00:04:14;;;;;;;20.20;8.35;;;;;;;7.50;76.25;97775.69;5081315;28;20023;-77
2024/01/26 00:06:40;;;;;;;28.65;11.65;;;;;;;7.37;79.34;97771.84;5065995;28;20031;-78
2024/01/26 00:09:10;;;;;;;27.05;11.13;;;;;;;7.34;77.46;97757.81;5061863;28;20480;-77
2024/01/26 00:11:37;;;;;;;21.98;10.95;;;;;;;7.39;76.55;97777.09;5062519;28;20021;-78
2024/01/26 00:14:03;;;;;;;21.40;9.02;;;;;;;7.31;84.81;97779.25;5062237;28;20115;-78
2024/01/26 00:16:29;;;;;;;19.13;7.22;;;;;;;7.29;81.71;97773.97;5056666;28;20577;-78
2024/01/26 00:18:54;;;;;;;32.78;12.98;;;;;;;7.18;89.34;97770.06;5073380;28;20013;-78
2024/01/26 00:21:20;;;;;;;34.47;13.00;;;;;;;7.12;87.32;97765.03;5055001;28;20028;-78
2024/01/26 00:23:45;;;;;;;36.38;15.13;;;;;;;7.20;88.37;97785.03;5060623;28;20091;-78
2024/01/26 00:26:14;;;;;;;37.60;14.15;;;;;;;7.08;88.01;97766.97;5063804;28;20037;-78
2024/01/26 00:28:42;;;;;;;38.78;15.27;;;;;;;7.06;91.50;97768.84;5042929;28;20132;-78
2024/01/26 00:31:07;;;;;;;36.08;13.43;;;;;;;7.03;89.94;97758.34;5066542;28;20043;-78
2024/01/26 00:33:36;;;;;;;27.48;11.63;;;;;;;7.08;89.73;97769.63;5063855;28;20200;-77
2024/01/26 00:36:02;;;;;;;15.38;5.10;;;;;;;7.08;87.15;97775.81;5064709;28;20395;-78
2024/01/26 00:38:27;;;;;;;8.20;2.70;;;;;;;7.35;74.94;97751.56;5068761;28;20040;-78
2024/01/26 00:40:53;;;;;;;11.07;2.20;;;;;;;7.39;74.22;97737.16;5063191;28;20024;-77
2024/01/26 00:43:19;;;;;;;6.78;1.98;;;;;;;7.50;73.94;97756.19;5062720;28;20039;-78
2024/01/26 00:45:44;;;;;;;6.60;2.40;;;;;;;7.47;78.72;97756.31;5084369;28;20491;-78
2024/01/26 00:48:10;;;;;;;8.50;2.17;;;;;;;7.42;77.98;97748.53;5062349;28;20070;-75
2024/01/26 00:50:35;;;;;;;6.95;2.60;;;;;;;7.36;78.05;97724.88;5060113;28;20023;-77
2024/01/26 00:53:02;;;;;;;7.28;2.25;;;;;;;7.38;79.71;97740.78;5067225;28;20032;-78
2024/01/26 00:55:29;;;;;;;5.55;1.75;;;;;;;7.37;78.38;97744.38;5070784;28;20036;-78
2024/01/26 00:57:58;;;;;;;5.03;2.00;;;;;;;7.32;82.20;97755.22;5060626;28;20518;-77
2024/01/26 01:00:24;;;;;;;8.68;2.10;;;;;;;7.27;81.91;97748.38;5062730;28;20016;-77
2024/01/26 01:02:50;;;;;;;5.85;1.83;;;;;;;7.30;79.94;97743.78;5078489;28;20450;-78
2024/01/26 01:05:17;;;;;;;7.20;2.30;;;;;;;7.25;81.54;97739.63;5054401;28;20406;-79
2024/01/26 01:07:42;;;;;;;5.15;2.38;;;;;;;7.20;80.06;97745.13;5060018;28;20399;-78
2024/01/26 01:10:10;;;;;;;8.45;2.35;;;;;;;7.14;81.67;97737.44;5071162;28;20034;-77
2024/01/26 01:12:39;;;;;;;5.25;2.30;;;;;;;7.19;81.80;97735.44;5069352;28;20132;-78
2024/01/26 01:15:05;;;;;;;7.78;2.15;;;;;;;7.31;75.23;97739.34;5058030;28;20040;-77
2024/01/26 01:17:30;;;;;;;6.95;2.17;;;;;;;7.33;76.21;97756.94;5063413;28;20031;-77
2024/01/26 01:19:56;;;;;;;4.75;1.90;;;;;;;7.18;79.05;97749.66;5064702;28;20111;-78
2024/01/26 01:22:22;;;;;;;10.20;2.20;;;;;;;7.19;78.61;97750.53;5070064;28;20436;-78
2024/01/26 01:24:47;;;;;;;9.20;2.40;;;;;;;7.23;78.10;97757.44;5083396;28;20047;-78
2024/01/26 01:27:13;;;;;;;3.85;1.98;;;;;;;7.31;72.61;97760.63;5061292;28;20068;-77
2024/01/26 01:29:39;;;;;;;4.10;1.55;;;;;;;7.14;74.18;97725.94;5064159;28;20035;-78
2024/01/26 01:32:05;;;;;;;8.00;2.22;;;;;;;7.27;75.71;97764.34;5058411;28;20048;-77
2024/01/26 01:34:30;;;;;;;10.15;1.70;;;;;;;7.24;73.98;97751.19;5055328;28;20114;-77
2024/01/26 01:36:56;;;;;;;6.70;2.10;;;;;;;7.28;71.72;97745.66;5064732;28;20490;-77
2024/01/26 01:39:22;;;;;;;9.02;1.77;;;;;;;7.20;72.46;97742.47;5078464;28;20115;-77
2024/01/26 01:41:48;;;;;;;9.32;1.77;;;;;;;7.35;71.86;97759.56;5064498;28;20066;-76
2024/01/26 01:44:14;;;;;;;8.07;2.22;;;;;;;7.26;73.14;97741.34;5064569;28;20043;-77
2024/01/26 01:46:39;;;;;;;7.63;1.77;;;;;;;7.35;73.27;97760.38;5063285;28;20028;-77
2024/01/26 01:49:05;;;;;;;4.32;1.80;;;;;;;7.25;74.28;97734.28;5058068;28;20020;-78
2024/01/26 01:51:33;;;;;;;5.70;2.20;;;;;;;7.40;74.47;97763.72;5055103;28;20496;-78
2024/01/26 01:53:58;;;;;;;8.73;2.50;;;;;;;7.49;73.31;97763.31;5070020;28;20558;-78
2024/01/26 01:56:24;;;;;;;5.38;2.10;;;;;;;7.53;71.42;97756.03;5061663;28;20103;-78
2024/01/26 01:58:51;;;;;;;7.53;2.15;;;;;;;7.55;73.11;97755.03;5065759;28;20036;-78
2024/01/26 02:01:16;;;;;;;10.32;3.00;;;;;;;7.57;73.05;97747.81;5064848;28;20020;-78
2024/01/26 02:03:42;;;;;;;11.70;3.00;;;;;;;7.51;72.29;97715.31;5070653;28;20024;-78
2024/01/26 02:06:08;;;;;;;5.55;1.92;;;;;;;7.65;71.65;97739.50;5061116;28;20059;-78
2024/01/26 02:08:33;;;;;;;6.70;2.38;;;;;;;7.49;72.83;97727.84;5064182;28;20035;-77
2024/01/26 02:10:59;;;;;;;3.83;1.60;;;;;;;7.58;70.83;97749.56;5064849;28;20017;-78
2024/01/26 02:13:25;;;;;;;10.50;2.28;;;;;;;7.61;71.38;97743.22;5058913;28;20035;-78
2024/01/26 02:15:50;;;;;;;7.70;3.03;;;;;;;7.54;77.01;97763.06;5056098;28;20020;-79
2024/01/26 02:18:16;;;;;;;11.05;4.60;;;;;;;7.59;76.15;97766.41;5064014;28;20034;-78
2024/01/26 02:20:41;;;;;;;5.63;2.70;;;;;;;7.50;76.48;97757.06;5059314;28;20028;-78
2024/01/26 02:23:07;;;;;;;5.80;2.70;;;;;;;7.53;78.37;97770.22;5058696;28;20379;-79
2024/01/26 02:25:33;;;;;;;8.82;2.83;;;;;;;7.50;80.47;97761.50;5058515;28;20082;-78
2024/01/26 02:27:58;;;;;;;19.63;8.05;;;;;;;7.57;75.53;97769.13;5058773;28;20048;-77
2024/01/26 02:30:24;;;;;;;7.07;2.60;;;;;;;7.54;76.90;97753.28;5064569;28;20052;-76
2024/01/26 02:32:49;;;;;;;7.55;3.17;;;;;;;7.51;71.51;97760.56;5062331;28;20575;-78
2024/01/26 02:35:15;;;;;;;14.02;6.22;;;;;;;7.41;76.27;97735.31;5064366;28;20032;-78
2024/01/26 02:37:41;;;;;;;16.90;4.80;;;;;;;7.35;77.31;97746.25;5084227;28;20053;-78
2024/01/26 02:40:08;;;;;;;8.43;2.63;;;;;;;7.37;76.78;97774.50;5063033;28;20055;-78
2024/01/26 02:42:34;;;;;;;6.88;2.33;;;;;;;7.29;77.13;97773.13;5063423;28;20028;-78
2024/01/26 02:44:59;;;;;;;6.18;2.55;;;;;;;7.40;71.58;97762.84;5083983;28;20525;-78
2024/01/26 02:47:25;;;;;;;7.75;2.10;;;;;;;7.23;72.97;97730.84;5067302;28;20028;-79
2024/01/26 02:49:51;;;;;;;3.08;1.33;;;;;;;7.44;68.24;97756.47;5071383;28;20465;-78
2024/01/26 02:52:16;;;;;;;8.10;1.80;;;;;;;7.37;69.78;97749.69;5067299;28;20510;-78
2024/01/26 02:54:42;;;;;;;8.23;2.00;;;;;;;7.34;70.51;97755.16;5075896;28;20028;-78
2024/01/26 02:57:08;;;;;;;7.40;2.05;;;;;;;7.38;70.47;97762.06;5062789;28;20089;-78
2024/01/26 02:59:33;;;;;;;8.00;2.33;;;;;;;7.27;72.84;97748.38;5071310;28;20023;-77
2024/01/26 03:01:59;;;;;;;9.35;2.63;;;;;;;7.25;73.30;97750.25;5071098;28;20099;-78
2024/01/26 03:04:25;;;;;;;5.65;2.10;;;;;;;7.27;75.27;97773.19;5066607;28;20028;-78
2024/01/26 03:06:51;;;;;;;5.68;2.40;;;;;;;7.28;79.31;97771.41;5067813;28;20020;-79
2024/01/26 03:09:17;;;;;;;12.90;3.10;;;;;;;7.21;80.11;97772.59;5058970;28;20512;-77
2024/01/26 03:11:43;;;;;;;10.13;3.17;;;;;;;7.08;81.29;97754.53;5063627;28;20055;-77
2024/01/26 03:14:09;;;;;;;6.45;2.35;;;;;;;6.98;81.75;97769.16;5065749;28;20032;-78
2024/01/26 03:16:35;;;;;;;8.32;2.58;;;;;;;6.96;80.15;97764.84;5065011;28;20460;-78
2024/01/26 03:19:05;;;;;;;11.13;3.33;;;;;;;6.86;79.49;97759.06;5060747;28;20388;-78
2024/01/26 03:21:31;;;;;;;9.98;2.80;;;;;;;6.91;81.85;97766.84;5083746;28;20517;-76
2024/01/26 03:23:56;;;;;;;6.90;2.45;;;;;;;6.84;82.27;97771.56;5072483;28;20044;-78
2024/01/26 03:26:22;;;;;;;8.23;2.33;;;;;;;6.74;80.31;97759.59;5059793;28;20044;-78
2024/01/26 03:28:48;;;;;;;8.50;2.65;;;;;;;6.71;80.99;97750.88;5057588;28;20345;-79
2024/01/26 03:31:14;;;;;;;8.52;2.17;;;;;;;6.74;78.50;97766.72;5072792;28;20048;-78
2024/01/26 03:33:40;;;;;;;8.85;2.40;;;;;;;6.72;79.36;97760.59;5057959;28;20062;-77
2024/01/26 03:36:07;;;;;;;17.88;3.42;;;;;;;6.63;82.34;97758.34;5066465;28;20131;-79
2024/01/26 03:38:33;;;;;;;8.40;2.80;;;;;;;6.60;78.94;97740.75;5058688;28;20492;-78
2024/01/26 03:40:58;;;;;;;5.22;1.95;;;;;;;6.60;79.99;97746.06;5063203;28;20021;-78
2024/01/26 03:43:24;;;;;;;6.20;2.42;;;;;;;6.53;77.23;97760.53;5070565;28;20036;-79
2024/01/26 03:45:49;;;;;;;5.57;2.28;;;;;;;6.47;81.58;97745.72;5064861;28;20031;-80
2024/01/26 03:48:15;;;;;;;9.10;2.58;;;;;;;6.47;79.50;97750.16;5074689;28;20028;-78
2024/01/26 03:50:41;;;;;;;5.10;1.73;;;;;;;6.70;76.01;97758.03;5058906;28;20028;-77
2024/01/26 03:53:06;;;;;;;6.15;2.28;;;;;;;6.86;71.22;97764.38;5062447;28;20426;-79
2024/01/26 03:55:32;;;;;;;6.25;1.95;;;;;;;6.77;74.15;97767.44;5065632;28;20039;-78
2024/01/26 03:57:58;;;;;;;10.65;1.77;;;;;;;6.80;76.05;97783.25;5054521;28;20047;-80
2024/01/26 04:00:24;;;;;;;7.22;1.80;;;;;;;6.90;72.65;97773.09;5064246;28;20033;-80
2024/01/26 04:02:49;;;;;;;8.18;1.98;;;;;;;6.80;75.13;97774.44;5069188;28;20028;-79
2024/01/26 04:05:15;;;;;;;5.00;2.28;;;;;;;6.77;78.41;97779.88;5079893;28;20031;-79
2024/01/26 04:07:40;;;;;;;17.90;4.63;;;;;;;6.71;77.39;97766.84;5081115;28;20028;-79
2024/01/26 04:10:06;;;;;;;14.88;5.43;;;;;;;6.67;77.82;97774.09;5069584;28;20167;-79
2024/01/26 04:12:33;;;;;;;8.85;3.05;;;;;;;6.70;76.57;97771.31;5070263;28;20393;-79
2024/01/26 04:14:59;;;;;;;16.98;5.95;;;;;;;6.65;76.46;97769.75;5074444;28;20513;-79
2024/01/26 04:17:24;;;;;;;10.32;4.40;;;;;;;6.54;79.80;97778.22;5071420;28;20032;-77
2024/01/26 04:19:50;;;;;;;16.90;4.93;;;;;;;6.46;82.14;97789.16;5053212;28;20106;-78
2024/01/26 04:22:15;;;;;;;11.38;4.68;;;;;;;6.26;82.99;97772.31;5060853;28;20092;-79
2024/01/26 04:24:41;;;;;;;12.43;4.07;;;;;;;6.31;85.06;97780.94;5060039;28;20055;-77
2024/01/26 04:27:07;;;;;;;11.73;5.13;;;;;;;6.30;85.33;97779.25;5073972;28;20052;-78
2024/01/26 04:29:33;;;;;;;9.35;4.53;;;;;;;6.22;86.32;97789.28;5068363;28;20107;-80
2024/01/26 04:31:59;;;;;;;13.85;4.90;;;;;;;6.20;84.26;97767.25;5061586;28;20050;-78
2024/01/26 04:34:25;;;;;;;23.90;5.20;;;;;;;6.14;85.79;97776.34;5053774;28;20375;-78
2024/01/26 04:36:51;;;;;;;11.80;3.90;;;;;;;6.22;84.42;97774.22;5056057;28;20031;-73
2024/01/26 04:39:17;;;;;;;12.90;4.22;;;;;;;6.16;85.54;97761.19;5073258;28;20107;-79
2024/01/26 04:41:43;;;;;;;15.20;4.40;;;;;;;6.10;87.85;97768.53;5087226;28;20050;-84
2024/01/26 04:44:09;;;;;;;12.93;3.63;;;;;;;6.05;85.46;97773.19;5080856;28;20447;-84
2024/01/26 04:46:36;;;;;;;11.88;3.05;;;;;;;6.18;81.82;97742.56;5085087;28;20129;-87
2024/01/26 04:49:02;;;;;;;13.70;3.38;;;;;;;6.21;82.05;97753.94;5082182;28;20016;-89
2024/01/26 04:51:28;;;;;;;7.07;2.08;;;;;;;6.23;76.96;97735.25;5087827;28;20495;-87
2024/01/26 04:53:54;;;;;;;4.22;2.10;;;;;;;6.54;74.07;97754.28;5070952;28;20012;-86
2024/01/26 04:56:21;;;;;;;7.80;2.40;;;;;;;6.69;70.38;97758.94;5090734;28;20063;-87
2024/01/26 04:58:47;;;;;;;5.15;2.10;;;;;;;6.69;69.46;97752.75;5073791;28;20044;-85
2024/01/26 05:01:13;;;;;;;9.18;2.65;;;;;;;6.70;71.25;97766.00;5082833;28;20020;-86
2024/01/26 05:03:38;;;;;;;5.07;1.80;;;;;;;6.66;69.64;97758.22;5062056;28;20020;-87
2024/01/26 05:06:04;;;;;;;8.82;2.67;;;;;;;6.67;72.83;97773.25;5060251;28;20060;-87
2024/01/26 05:08:30;;;;;;;5.28;1.98;;;;;;;6.58;72.19;97758.56;5077905;28;20024;-86
2024/01/26 05:10:55;;;;;;;6.63;1.88;;;;;;;6.87;68.12;97787.38;5053918;28;20453;-85
2024/01/26 05:13:21;;;;;;;6.13;2.30;;;;;;;6.82;68.69;97784.06;5066251;28;20115;-80
2024/01/26 05:15:46;;;;;;;8.52;2.05;;;;;;;6.79;70.90;97794.84;5058000;28;20020;-77
2024/01/26 05:18:12;;;;;;;11.80;2.38;;;;;;;6.81;67.83;97795.63;5063630;28;20039;-80
2024/01/26 05:20:38;;;;;;;7.65;2.00;;;;;;;6.80;67.32;97801.88;5073623;28;20464;-78
2024/01/26 05:23:04;;;;;;;5.45;1.75;;;;;;;6.87;67.07;97797.16;5067065;28;20081;-77
2024/01/26 05:25:30;;;;;;;7.55;1.98;;;;;;;6.88;65.74;97797.09;5084572;28;20127;-83
2024/01/26 05:27:55;;;;;;;5.20;2.15;;;;;;;6.88;67.13;97805.09;5065516;28;20028;-82
2024/01/26 05:30:21;;;;;;;6.20;2.63;;;;;;;6.82;67.97;97808.00;5062294;28;20089;-82
2024/01/26 05:32:46;;;;;;;30.63;9.52;;;;;;;6.84;69.67;97816.78;5077869;28;20036;-81
2024/01/26 05:35:12;;;;;;;4.25;2.10;;;;;;;6.83;67.64;97806.22;5062448;28;20109;-82
2024/01/26 05:37:38;;;;;;;8.43;2.35;;;;;;;6.87;68.52;97811.31;5086628;28;20055;-82
2024/01/26 05:40:06;;;;;;;4.88;2.10;;;;;;;6.88;67.68;97809.53;5064370;28;20048;-82
2024/01/26 05:42:31;;;;;;;5.78;2.40;;;;;;;6.98;65.81;97818.84;5067518;28;20027;-82
2024/01/26 05:44:57;;;;;;;6.43;2.60;;;;;;;7.06;65.86;97833.53;5068133;28;20344;-83
2024/01/26 05:47:22;;;;;;;14.82;3.17;;;;;;;7.09;64.91;97836.06;5069337;28;20024;-81
2024/01/26 05:49:50;;;;;;;8.85;3.45;;;;;;;7.09;64.39;97829.88;5066317;28;20038;-80
2024/01/26 05:52:16;;;;;;;30.67;14.13;;;;;;;7.11;69.01;97840.47;5066458;28;20066;-79
2024/01/26 05:54:42;;;;;;;23.08;8.40;;;;;;;7.07;68.45;97832.59;5067344;28;20020;-82
2024/01/26 05:57:07;;;;;;;22.95;6.70;;;;;;;7.12;68.29;97840.38;5075452;28;20089;-83
2024/01/26 05:59:33;;;;;;;8.38;3.30;;;;;;;7.17;67.68;97853.50;5070770;28;20024;-84
2024/01/26 06:01:58;;;;;;;13.52;3.30;;;;;;;7.12;67.39;97844.81;5067718;28;20089;-83
2024/01/26 06:04:24;;;;;;;10.23;4.65;;;;;;;7.13;68.38;97850.09;5061282;28;20036;-83
2024/01/26 06:06:50;;;;;;;17.85;5.93;;;;;;;7.04;66.02;97832.72;5071942;28;20108;-82
2024/01/26 06:09:16;;;;;;;13.77;5.88;;;;;;;7.16;66.00;97849.09;5076821;28;20035;-82
2024/01/26 06:11:43;;;;;;;15.07;6.53;;;;;;;7.17;66.28;97848.16;5095235;28;20411;-82
2024/01/26 06:14:08;;;;;;;17.77;7.75;;;;;;;7.23;65.32;97847.91;5071536;28;20520;-81
2024/01/26 06:16:35;;;;;;;20.35;7.90;;;;;;;7.36;66.04;97852.59;5082226;28;20059;-81
2024/01/26 06:19:00;;;;;;;18.17;8.60;;;;;;;7.44;65.65;97846.94;5073910;28;20027;-82
2024/01/26 06:21:26;;;;;;;21.25;10.43;;;;;;;7.53;66.17;97841.22;5076223;28;20403;-83
2024/01/26 06:23:51;;;;;;;29.70;12.40;;;;;;;7.70;66.08;97854.59;5081633;28;20040;-83
2024/01/26 06:26:19;;;;;;;16.70;6.25;;;;;;;7.88;64.64;97858.22;5064416;28;20039;-83
2024/01/26 06:28:45;;;;;;;23.33;8.15;;;;;;;7.95;64.42;97859.66;5072285;28;20024;-85
2024/01/26 06:31:11;;;;;;;19.38;8.00;;;;;;;8.00;64.69;97858.50;5074776;28;20034;-82
2024/01/26 06:33:37;;;;;;;12.05;5.80;;;;;;;8.06;64.10;97850.22;5064787;28;20073;-82
2024/01/26 06:36:02;;;;;;;12.00;5.60;;;;;;;8.09;64.39;97860.75;5075719;28;20032;-83
2024/01/26 06:38:28;;;;;;;17.45;8.13;;;;;;;8.10;65.54;97854.50;5065935;28;20065;-83
2024/01/26 06:40:54;;;;;;;29.77;13.10;;;;;;;8.13;69.16;97873.00;5073303;28;20071;-83
2024/01/26 06:43:20;;;;;;;25.15;10.45;;;;;;;8.13;69.36;97873.00;5078351;28;20411;-83
2024/01/26 06:45:46;;;;;;;15.32;6.40;;;;;;;8.22;65.93;97869.03;5058033;28;20052;-82
2024/01/26 06:48:17;;;;;;;25.80;8.20;;;;;;;8.32;64.57;97865.03;5066309;28;20459;-82
2024/01/26 06:50:46;;;;;;;31.85;11.00;;;;;;;8.50;64.18;97877.47;5074329;28;20476;-81
2024/01/26 06:53:17;;;;;;;21.67;8.82;;;;;;;8.45;67.14;97875.97;5074099;28;20496;-82
2024/01/26 06:55:46;;;;;;;17.17;6.83;;;;;;;8.41;70.55;97874.38;5081921;28;20028;-83
2024/01/26 06:58:22;;;;;;;18.15;6.68;;;;;;;8.44;69.05;97884.88;5066394;28;20048;-82
2024/01/26 07:01:00;;;;;;;10.98;4.03;;;;;;;8.34;66.77;97868.47;5081100;28;20029;-85
2024/01/26 07:03:29;;;;;;;10.45;4.07;;;;;;;8.56;64.26;97873.63;5085209;28;20450;-82
2024/01/26 07:05:55;;;;;;;20.75;7.60;;;;;;;8.43;66.49;97864.53;5064840;28;20111;-82
2024/01/26 07:08:20;;;;;;;16.08;6.65;;;;;;;8.56;65.23;97886.97;5077470;28;20063;-80
2024/01/26 07:10:46;;;;;;;11.18;4.90;;;;;;;8.32;64.96;97885.47;5091238;28;20020;-83
2024/01/26 07:13:11;;;;;;;16.05;5.78;;;;;;;8.27;65.47;97888.34;5064702;28;20043;-81
2024/01/26 07:15:37;;;;;;;14.85;5.35;;;;;;;8.14;66.64;97882.72;5063625;28;20411;-82
2024/01/26 07:18:04;;;;;;;14.15;6.57;;;;;;;8.13;68.94;97896.97;5069930;28;20051;-82
2024/01/26 07:20:30;;;;;;;16.55;7.05;;;;;;;7.93;70.28;97889.06;5071352;28;20539;-82
2024/01/26 07:22:55;;;;;;;30.25;9.88;;;;;;;7.95;71.95;97896.97;5072201;28;20184;-82
2024/01/26 07:25:21;;;;;;;26.67;12.80;;;;;;;8.00;71.54;97906.47;5064239;28;20053;-83
2024/01/26 07:27:47;;;;;;;12.57;5.32;;;;;;;8.02;70.31;97899.28;5062735;28;20043;-83
2024/01/26 07:30:15;;;;;;;12.77;5.32;;;;;;;8.15;68.58;97905.75;5075810;28;20075;-82
2024/01/26 07:32:41;;;;;;;11.48;4.75;;;;;;;8.20;66.89;97900.22;5089404;28;20030;-82
2024/01/26 07:35:07;;;;;;;10.35;4.43;;;;;;;8.23;66.56;97885.88;5082067;28;20073;-82
2024/01/26 07:37:33;;;;;;;10.90;4.63;;;;;;;8.60;63.96;97902.75;5090899;28;20481;-81
2024/01/26 07:40:01;;;;;;;7.90;4.15;;;;;;;8.83;62.85;97898.94;5074344;28;20045;-82
2024/01/26 07:42:26;;;;;;;22.73;6.50;;;;;;;8.97;61.15;97893.81;5075921;28;20029;-83
2024/01/26 07:44:52;;;;;;;19.35;4.95;;;;;;;8.79;61.06;97876.06;5072466;28;20032;-83
2024/01/26 07:47:18;;;;;;;10.50;4.13;;;;;;;9.19;59.46;97899.78;5080435;28;20510;-83
2024/01/26 07:49:43;;;;;;;8.27;3.90;;;;;;;9.68;59.50;97902.59;5064543;28;20129;-83
2024/01/26 07:52:09;;;;;;;12.68;4.18;;;;;;;10.29;57.36;97898.38;5078023;28;20033;-82
2024/01/26 07:54:35;;;;;;;11.05;3.67;;;;;;;11.23;56.01;97890.25;5063374;28;20064;-82
2024/01/26 07:57:00;;;;;;;14.32;3.28;;;;;;;12.93;50.05;97884.91;5076207;28;20057;-82
2024/01/26 07:59:26;;;;;;;7.25;2.58;;;;;;;14.08;46.39;97866.25;5071617;28;20029;-83
2024/01/26 08:01:51;;;;;;;;;;;;;;;15.70;43.82;97860.38;5066212;28;20462;-83
2024/01/26 08:04:17;;;;;;;6.70;2.80;;;;;;;16.09;41.31;97844.72;5078933;28;19912;-82
2024/01/26 08:06:43;;;;;;;6.57;2.83;;;;;;;15.41;40.89;97850.09;5070952;28;20023;-83
2024/01/26 08:09:10;;;;;;;6.93;3.35;;;;;;;16.16;41.01;97852.22;5071153;28;20032;-83
2024/01/26 08:11:36;;;;;;;6.90;2.67;;;;;;;16.31;39.19;97847.44;5092258;28;20104;-83
2024/01/26 08:14:02;;;;;;;9.70;3.25;;;;;;;15.50;39.82;97846.72;5067123;28;20452;-82
2024/01/26 08:16:28;;;;;;;8.00;2.17;;;;;;;14.82;40.68;97865.38;5077353;28;20051;-82
2024/01/26 08:18:54;;;;;;;7.82;2.78;;;;;;;13.51;42.67;97866.63;5077718;28;20032;-83
2024/01/26 08:21:19;;;;;;;12.88;4.63;;;;;;;13.24;43.90;97862.28;5072156;28;20028;-82
2024/01/26 08:23:46;;;;;;;7.10;2.92;;;;;;;13.17;44.98;97869.03;5072928;28;20114;-82
2024/01/26 08:26:13;;;;;;;8.88;3.35;;;;;;;12.94;45.22;97874.09;5084092;28;20036;-83
2024/01/26 08:28:38;;;;;;;10.70;3.13;;;;;;;12.71;45.68;97874.72;5082233;28;20150;-82
2024/01/26 08:31:05;;;;;;;9.98;3.80;;;;;;;12.29;45.66;97883.72;5071999;28;20044;-82
2024/01/26 08:33:31;;;;;;;10.45;3.92;;;;;;;11.46;46.34;97867.47;5071988;28;20040;-81
2024/01/26 08:35:56;;;;;;;12.35;4.22;;;;;;;11.18;47.96;97883.44;5071858;28;20384;-82
2024/01/26 08:38:22;;;;;;;15.32;4.32;;;;;;;11.09;47.86;97895.56;5082595;28;20476;-82
2024/01/26 08:40:47;;;;;;;7.50;2.58;;;;;;;11.09;47.25;97890.22;5076666;28;20039;-82
2024/01/26 08:43:13;;;;;;;9.30;4.07;;;;;;;10.95;47.54;97884.78;5065140;28;20125;-83
2024/01/26 08:45:39;;;;;;;12.75;4.30;;;;;;;10.63;48.74;97899.16;5083754;28;20028;-83
2024/01/26 08:48:05;;;;;;;7.60;3.65;;;;;;;10.31;50.34;97896.47;5063962;28;20419;-86
2024/01/26 08:50:31;;;;;;;11.30;2.90;;;;;;;10.20;50.29;97888.19;5063686;28;20041;-82
2024/01/26 08:52:56;;;;;;;8.43;2.30;;;;;;;10.23;50.99;97889.81;5069268;28;20055;-83
2024/01/26 08:55:22;;;;;;;7.63;4.13;;;;;;;10.65;51.04;97894.56;5068428;28;20058;-83
2024/01/26 08:57:48;;;;;;;9.05;3.55;;;;;;;10.83;50.28;97885.50;5061184;28;20024;-83
2024/01/26 09:00:15;;;;;;;9.00;4.05;;;;;;;10.83;50.05;97889.03;5066480;28;20488;-83
2024/01/26 09:02:41;;;;;;;14.90;5.55;;;;;;;10.92;50.36;97903.69;5067928;28;20541;-81
2024/01/26 09:05:09;;;;;;;29.25;9.15;;;;;;;10.76;50.37;97913.56;5066385;28;20119;-82
2024/01/26 09:07:35;;;;;;;25.15;9.05;;;;;;;10.89;51.16;97910.09;5065761;28;20090;-82
2024/01/26 09:10:01;;;;;;;18.30;5.25;;;;;;;11.31;49.88;97900.53;5080577;28;20077;-83
2024/01/26 09:12:26;;;;;;;14.85;5.63;;;;;;;11.94;49.83;97901.16;5083332;28;20040;-83
2024/01/26 09:14:52;;;;;;;8.43;2.70;;;;;;;12.89;46.10;97880.72;5084774;28;20024;-81
2024/01/26 09:17:18;;;;;;;11.13;5.43;;;;;;;13.40;45.52;97871.03;5080665;28;20028;-83
2024/01/26 09:19:43;;;;;;;10.80;4.28;;;;;;;13.35;44.33;97868.66;5089469;28;20020;-81
2024/01/26 09:22:09;;;;;;;26.33;9.95;;;;;;;13.87;43.93;97870.44;5068472;28;20035;-82
2024/01/26 09:24:34;;;;;;;7.53;3.28;;;;;;;15.11;41.92;97854.13;5091310;28;20045;-81
2024/01/26 09:27:01;;;;;;;12.80;4.30;;;;;;;15.86;40.15;97843.00;5063615;28;20338;-83
2024/01/26 09:29:26;;;;;;;12.32;4.40;;;;;;;16.77;38.52;97826.53;5069189;28;20031;-85
2024/01/26 09:32:02;;;;;;;5.43;2.00;;;;;;;16.98;37.28;97818.50;5062810;28;20028;-84
2024/01/26 09:34:28;;;;;;;8.63;3.72;;;;;;;16.60;38.09;97823.53;5057726;28;20024;-81
2024/01/26 09:36:53;;;;;;;7.18;3.63;;;;;;;15.44;39.11;97818.34;5074712;28;20484;-81
2024/01/26 09:39:19;;;;;;;5.70;2.40;;;;;;;15.88;38.82;97816.75;5072352;28;20028;-81
2024/01/26 09:41:45;;;;;;;8.90;3.20;;;;;;;17.32;37.68;97827.34;5078358;28;20060;-81
2024/01/26 09:44:10;;;;;;;;;;;;;;;18.23;35.16;97814.88;5088809;28;20070;-82
2024/01/26 09:46:36;;;;;;;4.43;1.80;;;;;;;18.00;34.85;97801.63;5060011;28;19956;-83
2024/01/26 09:49:02;;;;;;;4.95;1.95;;;;;;;18.78;34.51;97799.09;5060428;28;20032;-81
2024/01/26 09:51:29;;;;;;;10.32;2.00;;;;;;;20.76;32.49;97785.47;5077636;28;20031;-81
2024/01/26 09:53:56;;;;;;;;;;;;;;;19.52;33.37;97792.19;5071234;28;20032;-81
2024/01/26 09:56:21;;;;;;;4.88;2.30;;;;;;;20.03;33.05;97783.63;5059368;28;19912;-81
2024/01/26 09:58:47;;;;;;;8.68;2.75;;;;;;;19.72;32.89;97787.59;5064730;28;20036;-82
2024/01/26 10:01:17;;;;;;;10.38;2.42;;;;;;;20.29;32.72;97765.69;5071489;28;20033;-81
2024/01/26 10:03:42;;;;;;;4.65;1.75;;;;;;;20.62;31.83;97768.81;5058209;28;20131;-80
2024/01/26 10:06:09;;;;;;;4.05;2.00;;;;;;;20.21;31.43;97759.28;5090374;28;20059;-80
2024/01/26 10:08:41;;;;;;;5.43;1.90;;;;;;;19.91;31.85;97772.09;5068305;28;20028;-81
2024/01/26 10:11:07;;;;;;;;;;;;;;;20.33;31.41;97761.66;5059995;28;20028;-80
2024/01/26 10:13:33;;;;;;;3.58;1.20;;;;;;;20.66;29.98;97743.91;5072114;28;19912;-81
2024/01/26 10:16:08;;;;;;;6.68;2.60;;;;;;;20.26;30.91;97762.41;5065484;28;20028;-81
2024/01/26 10:18:44;;;;;;;4.53;1.90;;;;;;;20.72;30.68;97746.00;5059973;28;20032;-81
2024/01/26 10:21:13;;;;;;;7.40;1.90;;;;;;;19.09;31.86;97749.19;5064521;28;20028;-81
2024/01/26 10:23:40;;;;;;;6.95;2.03;;;;;;;17.94;34.09;97742.59;5093298;28;20024;-81
2024/01/26 10:26:05;;;;;;;6.10;1.70;;;;;;;18.93;32.82;97746.19;5074957;28;20085;-81
2024/01/26 10:28:31;;;;;;;6.05;2.05;;;;;;;19.90;33.21;97745.94;5080466;28;20024;-81
2024/01/26 10:30:58;;;;;;;5.32;1.75;;;;;;;21.15;31.78;97730.81;5074610;28;20484;-80
2024/01/26 10:33:24;;;;;;;11.55;2.70;;;;;;;21.97;31.35;97731.28;5039820;28;20029;-81
2024/01/26 10:35:57;;;;;;;4.95;1.90;;;;;;;20.77;32.26;97738.22;5091233;28;20081;-81
2024/01/26 10:38:23;;;;;;;5.95;2.70;;;;;;;20.38;31.46;97739.47;5056491;28;20044;-81
2024/01/26 10:40:54;;;;;;;10.13;2.40;;;;;;;18.47;32.87;97735.09;5085023;28;20028;-81
2024/01/26 10:43:19;;;;;;;2.47;1.80;;;;;;;18.20;33.15;97739.31;5068927;28;20036;-80
2024/01/26 10:45:46;;;;;;;4.38;1.73;;;;;;;17.64;34.05;97741.63;5063441;28;20074;-81
2024/01/26 10:48:12;;;;;;;5.72;1.73;;;;;;;17.57;34.29;97734.16;5084977;28;20031;-80
2024/01/26 10:50:38;;;;;;;34.17;3.88;;;;;;;15.84;35.46;97748.72;5071959;28;20032;-79
2024/01/26 10:53:22;;;;;;;7.95;3.00;;;;;;;14.98;37.12;97748.25;5059653;28;20062;-80
2024/01/26 10:55:49;;;;;;;6.65;3.58;;;;;;;13.97;39.32;97747.78;5073734;28;20020;-80
2024/01/26 10:58:15;;;;;;;12.20;5.05;;;;;;;13.01;40.37;97761.78;5084409;28;20047;-80
2024/01/26 11:00:41;;;;;;;12.38;3.08;;;;;;;13.25;40.87;97757.44;5056411;28;20021;-79
2024/01/26 11:03:08;;;;;;;12.70;3.78;;;;;;;13.62;41.07;97757.53;5064320;28;20127;-79
2024/01/26 11:05:34;;;;;;;7.97;3.40;;;;;;;12.75;40.79;97750.09;5085753;28;20036;-79
2024/01/26 11:08:02;;;;;;;5.50;2.75;;;;;;;12.31;42.10;97771.81;5087101;28;20502;-80
2024/01/26 11:10:29;;;;;;;5.65;2.33;;;;;;;11.76;42.78;97757.56;5067825;28;20560;-81
2024/01/26 11:13:05;;;;;;;3.28;1.90;;;;;;;11.49;43.48;97753.91;5064978;28;20023;-82
2024/01/26 11:15:31;;;;;;;10.43;3.13;;;;;;;11.49;43.73;97765.47;5073580;28;20028;-82
2024/01/26 11:17:57;;;;;;;9.02;4.05;;;;;;;11.40;43.62;97758.03;5063661;28;20174;-82
2024/01/26 11:20:28;;;;;;;8.25;3.35;;;;;;;11.24;43.81;97757.25;5066087;28;20114;-81
2024/01/26 11:23:10;;;;;;;7.07;2.58;;;;;;;10.81;44.03;97751.81;5064653;28;20058;-82
2024/01/26 11:25:47;;;;;;;6.57;2.97;;;;;;;10.79;45.17;97756.41;5082048;28;20074;-81
2024/01/26 11:28:17;;;;;;;5.85;2.65;;;;;;;11.42;44.88;97748.94;5072119;28;20071;-81
2024/01/26 11:30:54;;;;;;;4.03;1.80;;;;;;;12.06;42.43;97744.88;5063624;28;20031;-81
2024/01/26 11:33:23;;;;;;;4.30;1.90;;;;;;;11.80;42.73;97735.84;5064244;28;20408;-82